sensor_id;sensor_type;location;lat;lon;timestamp;pressure;altitude;pressure_sealevel;temperature;humidity
33554;BME280;19885;42.208;24.952;2023-07-16T00:00:55;99956.13;;;27.18;67.64
33554;BME280;19885;42.208;24.952;2023-07-16T00:03:23;99957.78;;;27.21;67.51
33554;BME280;19885;42.208;24.952;2023-07-16T00:05:51;99958.97;;;27.15;68.37
33554;BME280;19885;42.208;24.952;2023-07-16T00:08:16;99953.91;;;27.11;67.26
33554;BME280;19885;42.208;24.952;2023-07-16T00:10:42;99959.94;;;27.14;67.37
33554;BME280;19885;42.208;24.952;2023-07-16T00:13:10;99958.97;;;27.15;66.83
33554;BME280;19885;42.208;24.952;2023-07-16T00:15:35;99961.50;;;27.18;67.40
33554;BME280;19885;42.208;24.952;2023-07-16T00:18:01;99965.09;;;27.17;67.38
33554;BME280;19885;42.208;24.952;2023-07-16T00:20:26;99965.09;;;27.03;66.86
33554;BME280;19885;42.208;24.952;2023-07-16T00:22:57;99964.88;;;27.06;67.19
33554;BME280;19885;42.208;24.952;2023-07-16T00:25:25;99965.75;;;27.07;67.41
33554;BME280;19885;42.208;24.952;2023-07-16T00:27:50;99963.75;;;27.10;67.67
33554;BME280;19885;42.208;24.952;2023-07-16T00:30:16;99968.31;;;26.94;67.25
33554;BME280;19885;42.208;24.952;2023-07-16T00:32:41;99969.63;;;27.01;67.35
33554;BME280;19885;42.208;24.952;2023-07-16T00:35:09;99969.06;;;26.96;69.14
33554;BME280;19885;42.208;24.952;2023-07-16T00:37:34;99974.91;;;27.03;67.45
33554;BME280;19885;42.208;24.952;2023-07-16T00:40:00;99983.00;;;27.01;67.67
33554;BME280;19885;42.208;24.952;2023-07-16T00:42:25;99976.81;;;27.01;68.01
33554;BME280;19885;42.208;24.952;2023-07-16T00:44:50;99974.69;;;26.92;67.77
33554;BME280;19885;42.208;24.952;2023-07-16T00:47:16;99974.50;;;26.95;67.92
33554;BME280;19885;42.208;24.952;2023-07-16T00:49:41;99978.69;;;26.84;70.25
33554;BME280;19885;42.208;24.952;2023-07-16T00:52:08;99973.84;;;26.75;69.03
33554;BME280;19885;42.208;24.952;2023-07-16T00:54:37;99971.31;;;26.72;69.49
33554;BME280;19885;42.208;24.952;2023-07-16T00:57:03;99961.56;;;26.71;69.72
33554;BME280;19885;42.208;24.952;2023-07-16T00:59:28;99967.09;;;26.68;68.71
33554;BME280;19885;42.208;24.952;2023-07-16T01:01:53;99961.50;;;26.57;69.33
33554;BME280;19885;42.208;24.952;2023-07-16T01:04:19;99964.72;;;26.48;71.39
33554;BME280;19885;42.208;24.952;2023-07-16T01:06:45;99962.44;;;26.56;70.85
33554;BME280;19885;42.208;24.952;2023-07-16T01:11:43;99967.72;;;26.42;70.75
33554;BME280;19885;42.208;24.952;2023-07-16T01:14:08;99966.59;;;26.46;71.13
33554;BME280;19885;42.208;24.952;2023-07-16T01:16:34;99965.28;;;26.38;71.94
33554;BME280;19885;42.208;24.952;2023-07-16T01:19:00;99966.94;;;26.40;71.18
33554;BME280;19885;42.208;24.952;2023-07-16T01:21:26;99968.47;;;26.44;71.13
33554;BME280;19885;42.208;24.952;2023-07-16T01:29:42;99974.69;;;26.45;73.11
33554;BME280;19885;42.208;24.952;2023-07-16T01:32:02;99976.44;;;26.46;71.79
33554;BME280;19885;42.208;24.952;2023-07-16T01:34:29;99976.69;;;26.41;72.22
33554;BME280;19885;42.208;24.952;2023-07-16T01:36:58;99980.56;;;26.36;72.39
33554;BME280;19885;42.208;24.952;2023-07-16T01:39:23;99977.72;;;26.23;74.01
33554;BME280;19885;42.208;24.952;2023-07-16T01:41:53;99972.03;;;26.29;73.35
33554;BME280;19885;42.208;24.952;2023-07-16T01:44:21;99974.69;;;26.29;73.38
33554;BME280;19885;42.208;24.952;2023-07-16T01:47:30;99977.56;;;26.09;73.52
33554;BME280;19885;42.208;24.952;2023-07-16T01:49:35;99971.97;;;25.98;73.88
33554;BME280;19885;42.208;24.952;2023-07-16T01:52:01;99985.31;;;25.98;73.24
33554;BME280;19885;42.208;24.952;2023-07-16T01:54:27;99977.34;;;25.81;75.20
33554;BME280;19885;42.208;24.952;2023-07-16T01:56:53;99981.38;;;25.72;75.94
33554;BME280;19885;42.208;24.952;2023-07-16T01:59:21;99983.66;;;25.63;75.86
33554;BME280;19885;42.208;24.952;2023-07-16T02:01:49;99984.47;;;25.47;77.17
33554;BME280;19885;42.208;24.952;2023-07-16T02:04:14;99979.19;;;25.29;78.28
33554;BME280;19885;42.208;24.952;2023-07-16T02:06:39;99982.59;;;25.32;77.99
33554;BME280;19885;42.208;24.952;2023-07-16T02:09:08;99984.22;;;25.35;77.25
33554;BME280;19885;42.208;24.952;2023-07-16T02:11:33;99984.94;;;25.38;77.49
33554;BME280;19885;42.208;24.952;2023-07-16T02:13:58;99984.84;;;25.40;77.55
33554;BME280;19885;42.208;24.952;2023-07-16T02:16:24;99981.00;;;25.11;79.02
33554;BME280;19885;42.208;24.952;2023-07-16T02:18:52;99976.28;;;24.99;79.47
33554;BME280;19885;42.208;24.952;2023-07-16T02:21:21;99984.13;;;25.02;80.02
33554;BME280;19885;42.208;24.952;2023-07-16T02:23:46;99986.28;;;24.77;81.25
33554;BME280;19885;42.208;24.952;2023-07-16T02:26:12;99985.16;;;24.64;82.04
33554;BME280;19885;42.208;24.952;2023-07-16T02:28:39;99984.84;;;24.70;81.54
33554;BME280;19885;42.208;24.952;2023-07-16T02:31:07;99992.03;;;24.68;81.51
33554;BME280;19885;42.208;24.952;2023-07-16T02:33:33;99995.25;;;24.76;81.92
33554;BME280;19885;42.208;24.952;2023-07-16T03:35:43;100016.59;;;24.76;81.24
33554;BME280;19885;42.208;24.952;2023-07-16T03:38:09;100013.25;;;24.71;81.60
33554;BME280;19885;42.208;24.952;2023-07-16T03:40:35;100021.28;;;24.69;81.49
33554;BME280;19885;42.208;24.952;2023-07-16T03:43:00;100025.34;;;24.59;82.70
33554;BME280;19885;42.208;24.952;2023-07-16T03:45:25;100025.28;;;24.61;82.18
33554;BME280;19885;42.208;24.952;2023-07-16T03:47:51;100024.25;;;24.63;82.60
33554;BME280;19885;42.208;24.952;2023-07-16T11:11:29;99904.03;;;33.80;51.05
33554;BME280;19885;42.208;24.952;2023-07-16T11:13:57;99905.16;;;34.08;51.30
33554;BME280;19885;42.208;24.952;2023-07-16T11:16:22;99905.13;;;33.98;49.81
33554;BME280;19885;42.208;24.952;2023-07-16T11:18:48;99896.75;;;34.11;45.91
33554;BME280;19885;42.208;24.952;2023-07-16T11:21:13;99896.94;;;34.28;51.29
33554;BME280;19885;42.208;24.952;2023-07-16T11:23:38;99896.06;;;34.09;50.42
33554;BME280;19885;42.208;24.952;2023-07-16T11:26:04;99908.91;;;34.26;48.88
33554;BME280;19885;42.208;24.952;2023-07-16T11:28:39;99902.97;;;34.51;48.93
33554;BME280;19885;42.208;24.952;2023-07-16T11:31:14;99899.25;;;34.42;47.93
33554;BME280;19885;42.208;24.952;2023-07-16T11:33:41;99889.91;;;34.66;47.76
33554;BME280;19885;42.208;24.952;2023-07-16T11:36:06;99893.34;;;34.77;47.22
33554;BME280;19885;42.208;24.952;2023-07-16T11:38:35;99891.19;;;34.90;47.27
33554;BME280;19885;42.208;24.952;2023-07-16T11:41:01;99884.03;;;34.89;45.17
33554;BME280;19885;42.208;24.952;2023-07-16T11:43:26;99881.63;;;35.05;47.14
33554;BME280;19885;42.208;24.952;2023-07-16T11:45:51;99885.63;;;35.30;48.29
33554;BME280;19885;42.208;24.952;2023-07-16T11:48:16;99875.06;;;35.18;44.28
33554;BME280;19885;42.208;24.952;2023-07-16T11:50:42;99868.50;;;35.10;45.25
33554;BME280;19885;42.208;24.952;2023-07-16T11:53:07;99872.88;;;35.31;48.12
33554;BME280;19885;42.208;24.952;2023-07-16T11:55:32;99878.28;;;35.40;45.26
33554;BME280;19885;42.208;24.952;2023-07-16T11:57:58;99881.88;;;35.50;48.39
33554;BME280;19885;42.208;24.952;2023-07-16T12:00:24;99868.56;;;35.47;46.43
33554;BME280;19885;42.208;24.952;2023-07-16T12:02:50;99872.16;;;35.57;46.07
33554;BME280;19885;42.208;24.952;2023-07-16T12:05:18;99876.09;;;35.63;46.90
33554;BME280;19885;42.208;24.952;2023-07-16T12:07:44;99875.13;;;35.45;42.89
33554;BME280;19885;42.208;24.952;2023-07-16T12:10:09;99866.34;;;35.24;46.20
33554;BME280;19885;42.208;24.952;2023-07-16T12:12:34;99859.41;;;35.11;45.11
33554;BME280;19885;42.208;24.952;2023-07-16T12:15:03;99870.59;;;35.36;45.28
33554;BME280;19885;42.208;24.952;2023-07-16T12:17:29;99865.06;;;35.28;43.19
33554;BME280;19885;42.208;24.952;2023-07-16T12:19:54;99863.50;;;35.25;44.18
33554;BME280;19885;42.208;24.952;2023-07-16T12:22:19;99864.06;;;35.29;44.56
33554;BME280;19885;42.208;24.952;2023-07-16T12:24:45;99859.56;;;35.47;45.24
33554;BME280;19885;42.208;24.952;2023-07-16T12:27:11;99860.94;;;35.70;45.25
33554;BME280;19885;42.208;24.952;2023-07-16T12:29:36;99863.22;;;35.74;42.88
33554;BME280;19885;42.208;24.952;2023-07-16T12:32:01;99857.75;;;35.84;41.00
33554;BME280;19885;42.208;24.952;2023-07-16T12:34:27;99854.25;;;35.92;44.10
33554;BME280;19885;42.208;24.952;2023-07-16T12:36:52;99855.41;;;35.99;40.30
33554;BME280;19885;42.208;24.952;2023-07-16T12:39:19;99853.25;;;36.02;43.26
33554;BME280;19885;42.208;24.952;2023-07-16T12:41:44;99857.69;;;35.94;41.46
33554;BME280;19885;42.208;24.952;2023-07-16T12:44:09;99853.31;;;36.10;40.91
33554;BME280;19885;42.208;24.952;2023-07-16T12:46:34;99857.34;;;36.06;41.07
33554;BME280;19885;42.208;24.952;2023-07-16T12:49:00;99848.56;;;35.85;41.37
33554;BME280;19885;42.208;24.952;2023-07-16T12:51:25;99853.63;;;35.80;41.15
33554;BME280;19885;42.208;24.952;2023-07-16T12:53:50;99845.09;;;36.02;43.14
33554;BME280;19885;42.208;24.952;2023-07-16T12:56:15;99847.13;;;35.91;42.65
33554;BME280;19885;42.208;24.952;2023-07-16T12:58:41;99847.94;;;36.01;41.24
33554;BME280;19885;42.208;24.952;2023-07-16T13:01:06;99841.06;;;36.06;40.38
33554;BME280;19885;42.208;24.952;2023-07-16T13:03:32;99840.31;;;35.87;39.92
33554;BME280;19885;42.208;24.952;2023-07-16T13:05:58;99835.22;;;35.74;39.59
33554;BME280;19885;42.208;24.952;2023-07-16T13:08:23;99835.22;;;35.74;39.77
33554;BME280;19885;42.208;24.952;2023-07-16T13:10:48;99839.25;;;35.97;40.37
33554;BME280;19885;42.208;24.952;2023-07-16T13:13:14;99834.31;;;35.83;39.60
33554;BME280;19885;42.208;24.952;2023-07-16T13:15:39;99831.63;;;35.73;41.91
33554;BME280;19885;42.208;24.952;2023-07-16T13:18:04;99827.44;;;35.89;41.44
33554;BME280;19885;42.208;24.952;2023-07-16T13:20:29;99818.13;;;36.18;40.58
33554;BME280;19885;42.208;24.952;2023-07-16T13:22:55;99826.81;;;36.22;37.55
33554;BME280;19885;42.208;24.952;2023-07-16T13:25:20;99818.59;;;36.31;38.48
33554;BME280;19885;42.208;24.952;2023-07-16T13:27:46;99826.06;;;36.29;38.31
33554;BME280;19885;42.208;24.952;2023-07-16T13:30:11;99827.16;;;36.36;37.13
33554;BME280;19885;42.208;24.952;2023-07-16T13:32:37;99820.19;;;36.52;37.38
33554;BME280;19885;42.208;24.952;2023-07-16T13:35:02;99818.59;;;36.31;40.45
33554;BME280;19885;42.208;24.952;2023-07-16T13:37:28;99808.91;;;36.46;37.83
33554;BME280;19885;42.208;24.952;2023-07-16T13:39:53;99809.13;;;36.35;37.20
33554;BME280;19885;42.208;24.952;2023-07-16T13:42:19;99806.41;;;36.18;40.10
33554;BME280;19885;42.208;24.952;2023-07-16T13:44:44;99805.41;;;36.36;37.97
33554;BME280;19885;42.208;24.952;2023-07-16T13:47:09;99802.38;;;36.75;38.71
33554;BME280;19885;42.208;24.952;2023-07-16T13:49:34;99800.69;;;36.91;40.12
33554;BME280;19885;42.208;24.952;2023-07-16T13:52:00;99798.78;;;37.09;38.24
33554;BME280;19885;42.208;24.952;2023-07-16T13:54:25;99797.53;;;37.04;37.03
33554;BME280;19885;42.208;24.952;2023-07-16T13:56:50;99799.56;;;36.84;38.73
33554;BME280;19885;42.208;24.952;2023-07-16T13:59:16;99794.66;;;36.88;38.90
33554;BME280;19885;42.208;24.952;2023-07-16T14:01:41;99789.53;;;36.59;35.74
33554;BME280;19885;42.208;24.952;2023-07-16T14:04:06;99789.19;;;36.62;36.24
33554;BME280;19885;42.208;24.952;2023-07-16T14:06:32;99784.00;;;36.69;38.62
33554;BME280;19885;42.208;24.952;2023-07-16T14:08:57;99787.41;;;36.71;34.94
33554;BME280;19885;42.208;24.952;2023-07-16T14:11:23;99782.78;;;36.89;35.85
33554;BME280;19885;42.208;24.952;2023-07-16T14:13:48;99788.75;;;36.49;34.94
33554;BME280;19885;42.208;24.952;2023-07-16T14:16:16;99788.03;;;36.65;35.53
33554;BME280;19885;42.208;24.952;2023-07-16T14:18:42;99775.84;;;36.33;37.21
33554;BME280;19885;42.208;24.952;2023-07-16T14:21:07;99777.84;;;36.31;36.89
33554;BME280;19885;42.208;24.952;2023-07-16T14:23:32;99772.03;;;36.09;35.75
33554;BME280;19885;42.208;24.952;2023-07-16T14:25:57;99775.78;;;36.25;36.59
33554;BME280;19885;42.208;24.952;2023-07-16T14:28:23;99771.28;;;36.16;35.92
33554;BME280;19885;42.208;24.952;2023-07-16T14:30:48;99772.03;;;36.09;35.53
33554;BME280;19885;42.208;24.952;2023-07-16T14:33:13;99766.66;;;36.17;36.46
33554;BME280;19885;42.208;24.952;2023-07-16T14:35:39;99771.03;;;36.10;36.88
33554;BME280;19885;42.208;24.952;2023-07-16T14:38:04;99774.06;;;36.24;35.64
33554;BME280;19885;42.208;24.952;2023-07-16T14:40:29;99766.50;;;36.01;36.95
33554;BME280;19885;42.208;24.952;2023-07-16T14:42:55;99762.41;;;35.97;36.86
33554;BME280;19885;42.208;24.952;2023-07-16T14:45:20;99760.13;;;35.92;35.74
33554;BME280;19885;42.208;24.952;2023-07-16T14:47:45;99758.44;;;35.91;35.64
33554;BME280;19885;42.208;24.952;2023-07-16T14:50:11;99762.53;;;35.95;38.29
33554;BME280;19885;42.208;24.952;2023-07-16T14:52:36;99761.94;;;36.01;37.21
33554;BME280;19885;42.208;24.952;2023-07-16T14:55:02;99752.59;;;35.86;36.78
33554;BME280;19885;42.208;24.952;2023-07-16T14:57:29;99758.72;;;35.88;36.78
33554;BME280;19885;42.208;24.952;2023-07-16T14:59:54;99754.84;;;35.91;36.96
33554;BME280;19885;42.208;24.952;2023-07-16T15:02:20;99756.41;;;35.93;36.86
33554;BME280;19885;42.208;24.952;2023-07-16T15:04:45;99763.97;;;35.99;36.58
33554;BME280;19885;42.208;24.952;2023-07-16T15:07:10;99760.97;;;35.75;35.72
33554;BME280;19885;42.208;24.952;2023-07-16T15:09:36;99759.25;;;35.92;35.47
33554;BME280;19885;42.208;24.952;2023-07-16T15:12:03;99757.84;;;35.97;34.61
33554;BME280;19885;42.208;24.952;2023-07-16T15:14:29;99761.00;;;36.10;34.71
33554;BME280;19885;42.208;24.952;2023-07-16T15:16:54;99745.66;;;36.01;35.99
33554;BME280;19885;42.208;24.952;2023-07-16T15:19:19;99748.22;;;36.03;34.77
33554;BME280;19885;42.208;24.952;2023-07-16T15:21:45;99755.84;;;36.34;32.11
33554;BME280;19885;42.208;24.952;2023-07-16T15:24:10;99749.56;;;36.16;33.62
33554;BME280;19885;42.208;24.952;2023-07-16T15:26:35;99750.47;;;36.25;33.40
33554;BME280;19885;42.208;24.952;2023-07-16T15:29:00;99754.34;;;36.22;35.84
33554;BME280;19885;42.208;24.952;2023-07-16T15:31:26;99750.22;;;36.01;35.25
33554;BME280;19885;42.208;24.952;2023-07-16T15:33:54;99745.78;;;35.82;35.61
33554;BME280;19885;42.208;24.952;2023-07-16T15:36:20;99744.97;;;35.99;36.16
33554;BME280;19885;42.208;24.952;2023-07-16T15:38:45;99751.91;;;35.57;37.50
33554;BME280;19885;42.208;24.952;2023-07-16T15:41:11;99755.34;;;35.59;38.31
33554;BME280;19885;42.208;24.952;2023-07-16T15:43:36;99754.44;;;35.68;36.82
33554;BME280;19885;42.208;24.952;2023-07-16T15:46:02;99745.22;;;35.78;36.38
33554;BME280;19885;42.208;24.952;2023-07-16T15:48:27;99743.97;;;35.73;36.88
33554;BME280;19885;42.208;24.952;2023-07-16T15:51:01;99749.22;;;35.47;36.64
33554;BME280;19885;42.208;24.952;2023-07-16T15:53:27;99743.72;;;35.39;36.84
33554;BME280;19885;42.208;24.952;2023-07-16T15:55:53;99744.94;;;35.54;36.34
33554;BME280;19885;42.208;24.952;2023-07-16T15:58:18;99743.72;;;35.66;37.03
33554;BME280;19885;42.208;24.952;2023-07-16T16:00:44;99739.13;;;35.67;38.06
33554;BME280;19885;42.208;24.952;2023-07-16T16:03:10;99739.81;;;35.51;35.94
33554;BME280;19885;42.208;24.952;2023-07-16T16:05:36;99743.31;;;35.34;37.01
33554;BME280;19885;42.208;24.952;2023-07-16T16:08:12;99739.75;;;35.24;38.62
33554;BME280;19885;42.208;24.952;2023-07-16T16:10:39;99738.91;;;35.24;38.78
33554;BME280;19885;42.208;24.952;2023-07-16T16:13:04;99745.53;;;35.11;40.15
33554;BME280;19885;42.208;24.952;2023-07-16T16:15:29;99745.97;;;35.07;41.32
33554;BME280;19885;42.208;24.952;2023-07-16T16:17:54;99749.84;;;34.85;40.57
33554;BME280;19885;42.208;24.952;2023-07-16T16:23:35;99747.28;;;34.93;39.93
33554;BME280;19885;42.208;24.952;2023-07-16T16:26:00;99755.09;;;34.96;40.32
33554;BME280;19885;42.208;24.952;2023-07-16T16:28:26;99752.25;;;34.98;40.43
33554;BME280;19885;42.208;24.952;2023-07-16T16:30:51;99757.56;;;34.80;40.06
33554;BME280;19885;42.208;24.952;2023-07-16T16:33:17;99757.88;;;34.77;39.79
33554;BME280;19885;42.208;24.952;2023-07-16T16:35:42;99758.16;;;34.74;39.72
33554;BME280;19885;42.208;24.952;2023-07-16T16:38:08;99758.75;;;34.68;39.93
33554;BME280;19885;42.208;24.952;2023-07-16T16:40:34;99757.75;;;34.50;41.11
33554;BME280;19885;42.208;24.952;2023-07-16T16:42:59;99759.75;;;34.48;40.77
33554;BME280;19885;42.208;24.952;2023-07-16T16:45:25;99752.47;;;34.39;40.47
33554;BME280;19885;42.208;24.952;2023-07-16T16:47:51;99750.19;;;34.25;40.78
33554;BME280;19885;42.208;24.952;2023-07-16T16:50:16;99756.47;;;34.16;40.62
33554;BME280;19885;42.208;24.952;2023-07-16T16:52:42;99756.75;;;34.13;40.89
33554;BME280;19885;42.208;24.952;2023-07-16T16:55:07;99758.88;;;34.09;41.02
33554;BME280;19885;42.208;24.952;2023-07-16T16:57:33;99760.72;;;34.09;41.10
33554;BME280;19885;42.208;24.952;2023-07-16T16:59:58;99760.56;;;34.10;42.32
33554;BME280;19885;42.208;24.952;2023-07-16T17:02:24;99765.53;;;33.96;42.47
33554;BME280;19885;42.208;24.952;2023-07-16T17:04:49;99772.63;;;33.78;42.87
33554;BME280;19885;42.208;24.952;2023-07-16T17:07:15;99780.53;;;33.60;43.16
33554;BME280;19885;42.208;24.952;2023-07-16T17:09:41;99777.97;;;33.58;43.02
33554;BME280;19885;42.208;24.952;2023-07-16T17:14:41;99779.72;;;33.39;43.93
33554;BME280;19885;42.208;24.952;2023-07-16T17:17:10;99784.66;;;33.34;44.18
33554;BME280;19885;42.208;24.952;2023-07-16T17:19:35;99790.03;;;33.24;44.86
33554;BME280;19885;42.208;24.952;2023-07-16T17:22:01;99785.75;;;33.22;45.08
33554;BME280;19885;42.208;24.952;2023-07-16T17:24:27;99786.63;;;33.01;45.18
33554;BME280;19885;42.208;24.952;2023-07-16T17:26:52;99784.16;;;32.98;45.79
33554;BME280;19885;42.208;24.952;2023-07-16T17:29:17;99785.53;;;33.04;45.57
33554;BME280;19885;42.208;24.952;2023-07-16T17:31:43;99785.53;;;33.04;45.73
33554;BME280;19885;42.208;24.952;2023-07-16T17:34:08;99793.22;;;32.88;45.78
33554;BME280;19885;42.208;24.952;2023-07-16T17:36:33;99792.31;;;32.78;46.25
33554;BME280;19885;42.208;24.952;2023-07-16T17:38:59;99787.69;;;32.69;46.75
33554;BME280;19885;42.208;24.952;2023-07-16T17:41:24;99789.38;;;32.70;46.32
33554;BME280;19885;42.208;24.952;2023-07-16T17:43:50;99789.06;;;32.63;47.12
33554;BME280;19885;42.208;24.952;2023-07-16T17:46:15;99792.06;;;32.49;47.42
33554;BME280;19885;42.208;24.952;2023-07-16T17:48:40;99785.63;;;32.29;47.36
33554;BME280;19885;42.208;24.952;2023-07-16T17:51:06;99785.72;;;32.07;47.60
33554;BME280;19885;42.208;24.952;2023-07-16T17:53:33;99788.63;;;32.15;48.86
33554;BME280;19885;42.208;24.952;2023-07-16T17:55:58;99791.47;;;32.14;49.74
33554;BME280;19885;42.208;24.952;2023-07-16T17:58:25;99793.75;;;32.29;50.56
33554;BME280;19885;42.208;24.952;2023-07-16T18:01:02;99786.38;;;32.31;52.04
33554;BME280;19885;42.208;24.952;2023-07-16T18:03:28;99793.50;;;32.32;52.25
33554;BME280;19885;42.208;24.952;2023-07-16T18:05:54;99794.97;;;32.25;53.12
33554;BME280;19885;42.208;24.952;2023-07-16T18:08:22;99801.16;;;32.16;52.77
33554;BME280;19885;42.208;24.952;2023-07-16T18:10:48;99799.19;;;32.18;53.74
33554;BME280;19885;42.208;24.952;2023-07-16T18:13:13;99801.97;;;32.17;54.38
33554;BME280;19885;42.208;24.952;2023-07-16T18:15:38;99808.75;;;32.11;57.53
33554;BME280;19885;42.208;24.952;2023-07-16T18:18:04;99814.53;;;32.07;56.36
33554;BME280;19885;42.208;24.952;2023-07-16T18:20:30;99816.63;;;32.03;58.14
33554;BME280;19885;42.208;24.952;2023-07-16T18:22:55;99814.06;;;32.02;59.04
33554;BME280;19885;42.208;24.952;2023-07-16T18:25:20;99821.44;;;32.00;58.27
33554;BME280;19885;42.208;24.952;2023-07-16T18:27:46;99826.91;;;31.87;59.31
33554;BME280;19885;42.208;24.952;2023-07-16T18:30:11;99826.19;;;31.85;60.22
33554;BME280;19885;42.208;24.952;2023-07-16T18:32:36;99825.25;;;31.64;60.98
33554;BME280;19885;42.208;24.952;2023-07-16T18:35:02;99825.00;;;31.56;62.86
33554;BME280;19885;42.208;24.952;2023-07-16T18:37:28;99821.56;;;31.43;64.92
33554;BME280;19885;42.208;24.952;2023-07-16T18:39:53;99824.25;;;31.32;64.98
33554;BME280;19885;42.208;24.952;2023-07-16T18:45:05;99822.63;;;31.29;64.96
33554;BME280;19885;42.208;24.952;2023-07-16T18:47:31;99825.47;;;31.28;65.25
33554;BME280;19885;42.208;24.952;2023-07-16T18:49:56;99827.06;;;31.30;64.46
33554;BME280;19885;42.208;24.952;2023-07-16T18:52:22;99826.78;;;31.33;64.09
33554;BME280;19885;42.208;24.952;2023-07-16T18:54:50;99834.38;;;31.28;62.69
33554;BME280;19885;42.208;24.952;2023-07-16T18:57:15;99837.22;;;31.27;63.84
33554;BME280;19885;42.208;24.952;2023-07-16T18:59:40;99838.94;;;31.17;61.96
33554;BME280;19885;42.208;24.952;2023-07-16T19:02:06;99838.88;;;31.06;62.90
33554;BME280;19885;42.208;24.952;2023-07-16T19:04:31;99842.56;;;31.05;62.68
33554;BME280;19885;42.208;24.952;2023-07-16T19:06:57;99838.03;;;30.94;63.35
33554;BME280;19885;42.208;24.952;2023-07-16T19:09:24;99847.81;;;30.95;65.27
33554;BME280;19885;42.208;24.952;2023-07-16T19:11:49;99843.63;;;30.91;61.95
33554;BME280;19885;42.208;24.952;2023-07-16T19:14:14;99835.34;;;30.94;63.04
33554;BME280;19885;42.208;24.952;2023-07-16T19:16:40;99838.56;;;30.86;62.26
33554;BME280;19885;42.208;24.952;2023-07-16T19:19:05;99846.28;;;30.80;64.10
33554;BME280;19885;42.208;24.952;2023-07-16T19:21:30;99846.38;;;30.78;64.52
33554;BME280;19885;42.208;24.952;2023-07-16T19:23:56;99854.09;;;30.83;62.63
33554;BME280;19885;42.208;24.952;2023-07-16T19:26:21;99872.63;;;30.40;62.11
33554;BME280;19885;42.208;24.952;2023-07-16T19:28:47;99879.75;;;30.05;55.70
33554;BME280;19885;42.208;24.952;2023-07-16T19:31:12;99887.41;;;30.22;55.62
33554;BME280;19885;42.208;24.952;2023-07-16T19:33:38;99889.69;;;30.28;54.97
33554;BME280;19885;42.208;24.952;2023-07-16T19:36:03;99890.25;;;30.20;55.14
33554;BME280;19885;42.208;24.952;2023-07-16T19:38:29;99888.41;;;30.21;56.05
33554;BME280;19885;42.208;24.952;2023-07-16T19:40:54;99891.84;;;30.23;55.20
33554;BME280;19885;42.208;24.952;2023-07-16T19:43:19;99901.56;;;30.13;55.07
33554;BME280;19885;42.208;24.952;2023-07-16T19:45:45;99893.41;;;30.02;51.81
33554;BME280;19885;42.208;24.952;2023-07-16T19:48:10;99903.13;;;29.92;50.93
33554;BME280;19885;42.208;24.952;2023-07-16T19:50:36;99892.59;;;29.89;52.69
33554;BME280;19885;42.208;24.952;2023-07-16T19:53:01;99902.88;;;29.70;51.05
33554;BME280;19885;42.208;24.952;2023-07-16T19:55:30;99902.69;;;29.73;50.32
33554;BME280;19885;42.208;24.952;2023-07-16T19:57:56;99900.56;;;29.78;49.18
33554;BME280;19885;42.208;24.952;2023-07-16T20:00:24;99909.38;;;29.80;50.30
33554;BME280;19885;42.208;24.952;2023-07-16T20:02:49;99904.28;;;29.62;48.45
33554;BME280;19885;42.208;24.952;2023-07-16T20:05:15;99913.22;;;29.63;49.06
33554;BME280;19885;42.208;24.952;2023-07-16T20:07:42;99910.22;;;29.55;49.96
33554;BME280;19885;42.208;24.952;2023-07-16T20:10:07;99909.91;;;29.47;48.71
